Time;durP1;ratioP1;P1;durP2;ratioP2;P2;SDS_P1;SDS_P2;PMS_P1;PMS_P2;Temp;Humidity;BMP_temperature;BMP_pressure;BME280_temperature;BME280_humidity;BME280_pressure;Samples;Min_cycle;Max_cycle;Signal;HPM_P1;HPM_P2
2023/07/30 00:01:56;;;;;;;2.73;1.90;;;20.10;99.90;;;;;;4999276;28;20436;-87
2023/07/30 00:04:22;;;;;;;3.73;2.57;;;18.90;99.90;;;;;;4996939;28;20201;-87
2023/07/30 00:06:47;;;;;;;1.73;1.63;;;19.10;99.90;;;;;;4997904;28;20221;-87
2023/07/30 00:09:13;;;;;;;3.53;1.77;;;19.00;99.90;;;;;;4995978;28;20684;-87
2023/07/30 00:11:38;;;;;;;2.03;1.83;;;19.00;99.90;;;;;;5006956;28;20651;-87
2023/07/30 00:14:04;;;;;;;2.87;2.20;;;18.70;99.90;;;;;;5001282;28;20179;-87
2023/07/30 00:16:30;;;;;;;1.65;1.55;;;18.40;99.90;;;;;;5002484;28;20226;-87
2023/07/30 00:18:56;;;;;;;1.90;1.80;;;18.40;99.90;;;;;;4997298;28;20218;-87
2023/07/30 00:21:22;;;;;;;1.58;1.48;;;18.50;99.90;;;;;;4997553;28;20608;-87
2023/07/30 00:23:47;;;;;;;2.07;1.43;;;18.20;99.90;;;;;;4996358;28;20178;-87
2023/07/30 00:26:13;;;;;;;1.57;1.40;;;18.30;99.90;;;;;;4997411;28;20194;-87
2023/07/30 00:28:38;;;;;;;2.27;1.63;;;18.50;99.90;;;;;;4996155;28;20182;-87
2023/07/30 00:31:04;;;;;;;2.70;1.93;;;18.60;99.90;;;;;;5000864;28;20260;-87
2023/07/30 00:33:29;;;;;;;2.53;2.10;;;18.60;99.90;;;;;;5002278;28;20278;-87
2023/07/30 00:35:55;;;;;;;3.10;2.43;;;18.10;99.90;;;;;;4995596;28;20198;-87
2023/07/30 00:38:20;;;;;;;2.30;2.10;;;18.60;99.90;;;;;;4992091;28;20592;-87
2023/07/30 00:40:46;;;;;;;2.43;2.23;;;18.60;99.90;;;;;;5014417;28;20643;-88
2023/07/30 00:43:11;;;;;;;2.60;2.40;;;18.50;99.90;;;;;;5012486;28;20269;-88
2023/07/30 00:45:40;;;;;;;2.17;2.00;;;18.30;99.90;;;;;;5024119;28;20175;-87
2023/07/30 00:48:06;;;;;;;2.35;1.95;;;18.20;99.90;;;;;;5021170;28;20213;-88
2023/07/30 00:50:33;;;;;;;2.88;2.40;;;18.80;99.90;;;;;;4996249;28;20233;-87
2023/07/30 00:52:59;;;;;;;2.40;2.20;;;18.20;99.90;;;;;;4995080;28;20221;-87
2023/07/30 00:55:25;;;;;;;2.30;2.10;;;18.50;99.90;;;;;;5000991;28;20616;-88
2023/07/30 00:57:51;;;;;;;2.60;2.40;;;18.80;99.90;;;;;;4994993;28;20208;-88
2023/07/30 01:00:17;;;;;;;3.05;2.85;;;18.50;99.90;;;;;;4996929;28;20183;-87
2023/07/30 01:02:43;;;;;;;2.70;2.50;;;18.20;99.90;;;;;;5015977;28;20666;-88
2023/07/30 01:05:09;;;;;;;2.47;2.28;;;18.60;99.90;;;;;;4999522;28;20942;-88
2023/07/30 01:07:34;;;;;;;2.60;2.40;;;18.50;99.90;;;;;;5007978;28;20207;-88
2023/07/30 01:10:01;;;;;;;3.17;2.20;;;18.60;99.90;;;;;;5017161;28;20211;-87
2023/07/30 01:12:29;;;;;;;3.08;2.78;;;18.80;99.90;;;;;;5004920;28;20194;-87
2023/07/30 01:14:56;;;;;;;4.13;2.60;;;18.40;99.90;;;;;;4996067;28;20190;-87
2023/07/30 01:17:22;;;;;;;2.97;2.78;;;18.90;99.90;;;;;;4999966;28;20202;-88
2023/07/30 01:19:49;;;;;;;3.20;2.97;;;18.50;99.90;;;;;;5000046;28;20232;-88
2023/07/30 01:22:15;;;;;;;3.60;3.30;;;18.60;99.90;;;;;;5002989;28;20538;-88
2023/07/30 01:24:41;;;;;;;3.35;2.72;;;18.30;99.90;;;;;;4999018;28;20201;-88
2023/07/30 01:27:11;;;;;;;3.17;2.93;;;18.30;99.90;;;;;;5003854;28;20665;-88
2023/07/30 01:29:44;;;;;;;3.35;3.05;;;19.10;99.90;;;;;;4995205;28;20274;-88
2023/07/30 01:32:11;;;;;;;4.63;3.40;;;18.70;99.90;;;;;;4998246;28;20613;-88
2023/07/30 01:34:39;;;;;;;4.03;3.45;;;18.80;99.90;;;;;;4998915;28;20202;-87
2023/07/30 01:37:08;;;;;;;4.72;3.38;;;19.20;99.90;;;;;;4999207;28;20615;-87
2023/07/30 01:39:36;;;;;;;3.15;2.92;;;18.60;99.90;;;;;;5014931;28;20249;-87
2023/07/30 01:42:02;;;;;;;3.70;3.40;;;18.60;99.90;;;;;;4994801;28;20195;-87
2023/07/30 01:44:27;;;;;;;3.53;3.23;;;18.40;99.90;;;;;;4997055;28;20622;-87
2023/07/30 01:46:53;;;;;;;3.70;3.40;;;18.80;99.90;;;;;;4999425;28;20226;-87
2023/07/30 01:49:18;;;;;;;4.77;3.40;;;18.80;99.90;;;;;;5003341;28;20210;-87
2023/07/30 01:51:44;;;;;;;4.67;4.07;;;18.90;99.90;;;;;;4993204;28;20221;-87
2023/07/30 01:54:09;;;;;;;5.20;3.97;;;18.90;99.90;;;;;;5002095;28;21357;-88
2023/07/30 01:56:35;;;;;;;4.20;3.90;;;18.80;99.90;;;;;;5000550;28;20201;-87
2023/07/30 01:59:00;;;;;;;4.17;3.87;;;18.90;99.90;;;;;;4998336;28;20182;-87
2023/07/30 02:01:26;;;;;;;4.20;3.90;;;18.90;99.90;;;;;;4998658;28;20565;-87
2023/07/30 02:03:51;;;;;;;4.20;3.80;;;18.90;99.90;;;;;;5001639;28;20233;-87
2023/07/30 02:06:17;;;;;;;9.97;7.47;;;18.60;99.90;;;;;;4999065;28;20214;-88
2023/07/30 02:08:42;;;;;;;4.17;3.73;;;18.90;99.90;;;;;;5016421;28;20214;-87
2023/07/30 02:11:08;;;;;;;3.87;3.53;;;19.00;99.90;;;;;;5003269;28;20202;-88
2023/07/30 02:13:33;;;;;;;4.73;4.00;;;18.90;99.90;;;;;;4999244;28;20623;-88
2023/07/30 02:15:59;;;;;;;4.20;3.80;;;18.90;99.90;;;;;;5002214;28;20207;-88
2023/07/30 02:18:24;;;;;;;4.33;3.93;;;18.90;99.90;;;;;;4996363;28;20644;-88
2023/07/30 02:20:50;;;;;;;4.20;3.90;;;18.60;99.90;;;;;;4994555;28;20194;-88
2023/07/30 02:23:16;;;;;;;5.20;4.77;;;19.80;99.90;;;;;;5014931;28;20190;-87
2023/07/30 02:25:42;;;;;;;3.43;3.13;;;18.70;99.90;;;;;;5003197;28;20186;-88
2023/07/30 02:28:08;;;;;;;4.15;3.85;;;19.00;99.90;;;;;;5001342;28;20187;-87
2023/07/30 02:30:34;;;;;;;4.20;3.90;;;19.20;99.90;;;;;;4997115;28;20206;-88
2023/07/30 02:32:59;;;;;;;4.27;3.87;;;18.80;99.90;;;;;;5005124;28;20642;-87
2023/07/30 02:35:25;;;;;;;3.83;3.50;;;19.00;99.90;;;;;;4994857;28;20450;-87
2023/07/30 02:37:51;;;;;;;4.50;4.10;;;19.00;99.90;;;;;;4994925;28;20289;-87
2023/07/30 02:40:16;;;;;;;3.83;3.53;;;18.90;99.90;;;;;;4997481;28;20188;-87
2023/07/30 02:42:42;;;;;;;5.73;4.30;;;18.50;99.90;;;;;;4998868;28;20663;-87
2023/07/30 02:45:08;;;;;;;6.50;4.70;;;18.70;99.90;;;;;;5003166;28;20237;-87
2023/07/30 02:47:33;;;;;;;4.30;3.90;;;18.50;99.90;;;;;;5000565;28;20298;-88
2023/07/30 02:49:59;;;;;;;3.67;3.37;;;18.80;99.90;;;;;;5002138;28;21006;-88
2023/07/30 02:52:24;;;;;;;3.87;3.57;;;18.60;99.90;;;;;;5012675;28;20191;-88
2023/07/30 02:54:50;;;;;;;4.20;3.30;;;18.80;99.90;;;;;;4996321;28;20185;-88
2023/07/30 02:57:15;;;;;;;3.83;3.50;;;18.80;99.90;;;;;;5000349;28;20244;-88
2023/07/30 02:59:41;;;;;;;4.20;3.80;;;19.50;99.90;;;;;;5000810;28;20184;-88
2023/07/30 03:02:06;;;;;;;5.93;3.80;;;18.80;99.90;;;;;;5000845;28;20205;-88
2023/07/30 03:04:32;;;;;;;3.63;3.33;;;19.70;99.90;;;;;;5003484;28;20542;-88
2023/07/30 03:06:58;;;;;;;4.35;3.95;;;18.70;99.90;;;;;;5001396;28;20264;-88
2023/07/30 03:09:24;;;;;;;4.73;4.23;;;18.50;99.90;;;;;;5003841;28;20210;-88
2023/07/30 03:11:50;;;;;;;4.40;4.03;;;18.30;99.90;;;;;;4996373;28;20640;-88
2023/07/30 03:14:15;;;;;;;4.47;4.10;;;18.60;99.90;;;;;;5000160;28;20981;-88
2023/07/30 03:16:41;;;;;;;3.93;3.63;;;18.60;99.90;;;;;;5004273;28;20631;-88
2023/07/30 03:19:07;;;;;;;5.80;4.23;;;18.50;99.90;;;;;;5002350;28;20186;-88
2023/07/30 03:21:32;;;;;;;4.67;3.63;;;18.80;99.90;;;;;;4997957;28;20188;-88
2023/07/30 03:23:58;;;;;;;4.53;3.90;;;18.60;99.90;;;;;;4999828;28;20186;-88
2023/07/30 03:26:23;;;;;;;4.10;3.70;;;18.30;99.90;;;;;;5016859;28;20217;-88
2023/07/30 03:28:49;;;;;;;3.60;3.30;;;18.80;99.90;;;;;;5001806;28;20170;-88
2023/07/30 03:31:15;;;;;;;4.47;4.00;;;18.30;99.90;;;;;;5015220;28;20216;-88
2023/07/30 03:33:43;;;;;;;3.50;3.20;;;18.60;99.90;;;;;;5003395;28;20214;-88
2023/07/30 03:36:10;;;;;;;4.00;3.60;;;18.70;99.90;;;;;;5003279;28;20207;-88
2023/07/30 03:38:35;;;;;;;3.72;3.42;;;19.10;99.90;;;;;;4999082;28;20189;-88
2023/07/30 03:41:01;;;;;;;3.90;3.60;;;18.60;99.90;;;;;;4997862;28;20198;-88
2023/07/30 03:43:26;;;;;;;4.00;3.70;;;18.30;99.90;;;;;;4998044;28;20194;-88
2023/07/30 03:45:52;;;;;;;4.20;3.80;;;18.80;99.90;;;;;;5002365;28;20197;-88
2023/07/30 03:48:17;;;;;;;4.30;3.60;;;18.80;99.90;;;;;;5004355;28;20194;-88
2023/07/30 03:50:43;;;;;;;5.83;4.53;;;18.70;99.90;;;;;;5004224;28;20697;-88
2023/07/30 03:53:09;;;;;;;3.73;3.43;;;18.80;99.90;;;;;;4999367;28;20182;-88
2023/07/30 03:55:34;;;;;;;3.53;3.23;;;18.50;99.90;;;;;;5001452;28;20273;-88
2023/07/30 03:57:59;;;;;;;4.13;3.80;;;18.70;99.90;;;;;;4997383;28;20378;-88
2023/07/30 04:00:25;;;;;;;4.40;3.30;;;19.10;99.90;;;;;;4997460;28;20194;-88
2023/07/30 04:02:50;;;;;;;4.30;3.57;;;18.90;99.90;;;;;;4998325;28;20182;-88
2023/07/30 04:05:16;;;;;;;4.30;3.90;;;18.90;99.90;;;;;;4999573;28;20509;-88
2023/07/30 04:07:42;;;;;;;4.10;3.70;;;18.80;99.90;;;;;;5001124;28;20210;-88
2023/07/30 04:10:08;;;;;;;4.00;3.60;;;18.80;99.90;;;;;;5001486;28;20207;-88
2023/07/30 04:12:33;;;;;;;3.80;3.50;;;18.40;99.90;;;;;;4997610;28;20182;-87
2023/07/30 04:14:59;;;;;;;3.87;3.57;;;19.10;99.90;;;;;;4989136;28;20194;-89
2023/07/30 04:17:24;;;;;;;5.33;4.20;;;18.90;99.90;;;;;;4997002;28;20209;-88
2023/07/30 04:19:50;;;;;;;4.27;3.97;;;19.00;99.90;;;;;;4995805;28;20183;-88
2023/07/30 04:22:15;;;;;;;3.90;3.50;;;19.10;99.90;;;;;;5020596;28;20197;-87
2023/07/30 04:24:41;;;;;;;4.30;3.90;;;19.10;99.90;;;;;;5002496;28;20250;-88
2023/07/30 04:27:07;;;;;;;4.00;3.60;;;18.90;99.90;;;;;;4999041;28;20209;-88
2023/07/30 04:29:32;;;;;;;3.67;3.37;;;19.10;99.90;;;;;;4993556;28;20210;-89
2023/07/30 04:31:58;;;;;;;3.80;3.20;;;19.20;99.90;;;;;;5013051;28;20538;-89
2023/07/30 04:34:23;;;;;;;3.93;3.40;;;19.10;99.90;;;;;;5016343;28;20650;-89
2023/07/30 04:36:49;;;;;;;3.53;3.23;;;19.00;99.90;;;;;;4992472;28;20671;-89
2023/07/30 04:39:14;;;;;;;3.50;3.30;;;19.00;99.90;;;;;;4992435;28;20194;-88
2023/07/30 04:41:40;;;;;;;4.40;4.00;;;19.00;99.90;;;;;;4998383;28;20218;-89
2023/07/30 04:44:05;;;;;;;4.43;3.53;;;19.10;99.90;;;;;;4995834;28;20596;-89
2023/07/30 04:46:33;;;;;;;3.30;3.03;;;18.50;99.90;;;;;;4992455;28;20191;-89
2023/07/30 04:48:58;;;;;;;3.75;3.45;;;19.10;99.90;;;;;;4988485;28;20242;-89
2023/07/30 04:51:24;;;;;;;3.63;3.33;;;19.40;99.90;;;;;;4995987;28;20222;-89
2023/07/30 04:53:49;;;;;;;3.33;3.10;;;19.20;99.90;;;;;;4992842;28;20211;-92
2023/07/30 04:56:15;;;;;;;3.80;3.23;;;19.50;99.90;;;;;;5014041;28;20224;-89
2023/07/30 04:58:40;;;;;;;3.53;3.13;;;18.90;99.90;;;;;;5023662;28;20266;-91
2023/07/30 05:01:06;;;;;;;3.70;3.03;;;19.70;99.90;;;;;;5017166;28;20233;-90
2023/07/30 05:03:31;;;;;;;3.40;3.10;;;19.00;99.90;;;;;;5002424;28;20194;-91
2023/07/30 05:05:57;;;;;;;6.23;3.43;;;20.90;99.90;;;;;;5007482;28;20210;-91
2023/07/30 05:08:22;;;;;;;3.43;2.97;;;18.80;99.90;;;;;;4996805;28;20189;-89
2023/07/30 05:10:48;;;;;;;3.50;3.20;;;19.50;99.90;;;;;;4991824;28;20205;-90
2023/07/30 05:13:13;;;;;;;4.40;4.00;;;19.40;99.90;;;;;;4988436;28;20187;-89
2023/07/30 05:15:39;;;;;;;3.87;3.47;;;19.60;99.90;;;;;;4998679;28;20284;-88
2023/07/30 05:18:04;;;;;;;3.20;3.00;;;19.10;99.90;;;;;;4993001;28;20282;-88
2023/07/30 05:20:30;;;;;;;3.50;2.80;;;19.20;99.90;;;;;;4995124;28;20233;-88
2023/07/30 05:22:55;;;;;;;3.97;3.67;;;19.30;99.90;;;;;;4995381;28;20191;-88
2023/07/30 05:25:21;;;;;;;3.90;3.40;;;19.50;99.90;;;;;;4997067;28;20282;-90
2023/07/30 05:27:46;;;;;;;5.00;3.77;;;20.90;99.90;;;;;;4999474;28;20698;-90
2023/07/30 05:30:12;;;;;;;3.23;3.03;;;19.10;99.90;;;;;;5000150;28;20220;-90
2023/07/30 05:32:37;;;;;;;3.43;3.10;;;18.80;99.90;;;;;;4998561;28;20186;-90
2023/07/30 05:35:03;;;;;;;3.30;3.10;;;19.70;99.90;;;;;;4995782;28;20178;-90
2023/07/30 05:37:29;;;;;;;4.07;3.77;;;19.30;99.90;;;;;;4996709;28;20680;-87
2023/07/30 05:39:54;;;;;;;5.53;3.53;;;19.80;99.90;;;;;;4997419;28;20954;-87
2023/07/30 05:42:20;;;;;;;4.50;3.33;;;19.80;99.90;;;;;;5017542;28;20198;-87
2023/07/30 05:44:45;;;;;;;3.30;3.10;;;19.70;99.90;;;;;;4997004;28;20183;-87
2023/07/30 05:47:11;;;;;;;3.10;2.90;;;19.40;99.90;;;;;;4999384;28;20214;-87
2023/07/30 05:49:36;;;;;;;2.57;2.37;;;19.70;99.90;;;;;;5000819;28;20730;-86
2023/07/30 05:52:02;;;;;;;3.40;2.83;;;19.90;99.90;;;;;;4993653;28;20561;-87
2023/07/30 05:54:28;;;;;;;3.33;3.03;;;19.40;99.90;;;;;;5015587;28;20270;-87
2023/07/30 05:56:53;;;;;;;3.70;3.40;;;19.80;99.90;;;;;;4997248;28;20346;-87
2023/07/30 05:59:19;;;;;;;3.37;3.07;;;20.10;99.90;;;;;;4993823;28;20552;-87
2023/07/30 06:01:45;;;;;;;2.83;2.60;;;19.70;99.90;;;;;;4995837;28;20213;-87
2023/07/30 06:04:10;;;;;;;3.43;2.90;;;19.80;99.90;;;;;;4998963;28;20214;-87
2023/07/30 06:06:36;;;;;;;4.37;2.70;;;19.90;99.90;;;;;;4996213;28;20253;-87
2023/07/30 06:09:01;;;;;;;3.00;2.70;;;20.10;99.90;;;;;;5000444;28;20191;-87
2023/07/30 06:11:27;;;;;;;3.90;3.60;;;19.90;99.90;;;;;;4997630;28;20290;-87
2023/07/30 06:13:53;;;;;;;3.27;2.97;;;20.10;99.90;;;;;;5016972;28;20183;-87
2023/07/30 06:16:22;;;;;;;3.23;2.90;;;20.20;99.90;;;;;;5021808;28;20469;-87
2023/07/30 06:18:47;;;;;;;2.80;2.60;;;20.60;99.90;;;;;;5035957;28;20202;-87
2023/07/30 06:21:13;;;;;;;3.07;2.77;;;20.80;99.90;;;;;;5002119;28;20616;-87
2023/07/30 06:23:39;;;;;;;4.10;2.60;;;20.90;99.90;;;;;;4997416;28;20599;-87
2023/07/30 06:26:04;;;;;;;3.10;2.90;;;20.60;99.90;;;;;;5015295;28;20288;-86
2023/07/30 06:28:30;;;;;;;3.37;3.07;;;20.90;99.90;;;;;;4997490;28;20554;-87
2023/07/30 06:30:59;;;;;;;3.03;2.80;;;20.70;99.90;;;;;;4993115;28;20232;-87
2023/07/30 06:33:24;;;;;;;3.10;2.47;;;20.60;99.90;;;;;;4995104;28;20218;-87
2023/07/30 06:35:50;;;;;;;2.90;2.47;;;20.80;99.90;;;;;;4995006;28;20223;-87
2023/07/30 06:38:15;;;;;;;2.50;2.20;;;20.60;99.90;;;;;;5019980;28;20226;-87
2023/07/30 06:40:41;;;;;;;4.83;2.60;;;21.00;99.90;;;;;;5000913;28;20564;-87
2023/07/30 06:43:06;;;;;;;2.47;2.23;;;20.90;99.90;;;;;;5016128;28;20238;-87
2023/07/30 06:45:32;;;;;;;2.20;2.00;;;21.10;99.90;;;;;;5007870;28;20206;-86
2023/07/30 06:47:57;;;;;;;2.10;1.90;;;21.10;99.90;;;;;;4996050;28;20205;-89
2023/07/30 06:50:23;;;;;;;2.40;1.97;;;21.40;99.90;;;;;;4994300;28;20305;-89
2023/07/30 06:52:49;;;;;;;1.70;1.60;;;21.20;99.90;;;;;;5016397;28;20194;-89
2023/07/30 06:55:15;;;;;;;1.97;1.77;;;21.40;99.90;;;;;;4996517;28;20458;-89
2023/07/30 06:57:40;;;;;;;2.67;1.90;;;21.40;99.90;;;;;;4999766;28;20214;-89
2023/07/30 07:00:06;;;;;;;2.10;1.87;;;22.80;99.90;;;;;;4997468;28;20191;-88
2023/07/30 07:02:32;;;;;;;3.92;1.92;;;21.50;99.90;;;;;;4998596;28;20652;-88
2023/07/30 07:04:58;;;;;;;1.63;1.53;;;21.40;99.90;;;;;;4996864;28;20202;-88
2023/07/30 07:07:23;;;;;;;1.80;1.70;;;21.70;99.90;;;;;;5002153;28;20964;-88
2023/07/30 07:09:49;;;;;;;2.20;1.80;;;21.70;99.90;;;;;;4998910;28;20213;-88
2023/07/30 07:12:15;;;;;;;1.87;1.77;;;21.10;99.90;;;;;;4998712;28;20364;-88
2023/07/30 07:14:42;;;;;;;2.20;2.00;;;21.20;99.90;;;;;;4993186;28;20191;-88
2023/07/30 07:17:07;;;;;;;1.90;1.50;;;21.00;99.90;;;;;;4994391;28;20622;-88
2023/07/30 07:19:36;;;;;;;1.70;1.60;;;21.40;99.90;;;;;;4992626;28;20183;-88
2023/07/30 07:22:03;;;;;;;2.85;1.90;;;21.10;99.90;;;;;;4996512;28;20430;-86
2023/07/30 07:24:29;;;;;;;1.60;1.50;;;21.10;99.90;;;;;;5009941;28;20194;-87
2023/07/30 07:26:54;;;;;;;1.80;1.70;;;21.30;99.90;;;;;;4995115;28;20210;-87
2023/07/30 07:29:20;;;;;;;1.90;1.80;;;21.30;99.90;;;;;;4999845;28;20248;-87
2023/07/30 07:31:45;;;;;;;2.00;1.80;;;21.40;99.90;;;;;;5000493;28;20294;-86
2023/07/30 07:34:11;;;;;;;1.90;1.70;;;21.40;99.90;;;;;;4997688;28;20181;-86
2023/07/30 07:36:37;;;;;;;1.70;1.60;;;21.90;99.90;;;;;;5000767;28;20217;-86
2023/07/30 07:39:03;;;;;;;1.65;1.55;;;22.00;99.90;;;;;;5000452;28;20189;-86
2023/07/30 07:41:29;;;;;;;1.73;1.60;;;22.80;99.90;;;;;;4999595;28;20191;-84
2023/07/30 07:43:54;;;;;;;1.73;1.60;;;21.00;99.90;;;;;;4996038;28;20815;-84
2023/07/30 07:46:21;;;;;;;1.63;1.47;;;20.90;99.90;;;;;;4993548;28;20210;-84
2023/07/30 07:48:47;;;;;;;2.00;1.80;;;20.50;99.90;;;;;;5004579;28;20634;-83
2023/07/30 07:51:12;;;;;;;1.90;1.80;;;20.50;99.90;;;;;;4999987;28;20198;-83
2023/07/30 07:53:38;;;;;;;2.03;1.40;;;20.50;99.90;;;;;;4999011;28;20186;-84
2023/07/30 07:56:04;;;;;;;1.73;1.63;;;20.50;99.90;;;;;;4999882;28;20681;-84
2023/07/30 07:58:31;;;;;;;1.90;1.80;;;20.30;99.90;;;;;;5001241;28;20437;-84
2023/07/30 08:00:57;;;;;;;1.50;1.40;;;20.60;99.90;;;;;;5003934;28;20190;-84
2023/07/30 08:03:23;;;;;;;1.55;1.33;;;21.00;99.90;;;;;;5000457;28;20184;-83
2023/07/30 08:05:49;;;;;;;1.50;1.40;;;21.20;99.90;;;;;;4985132;28;20237;-84
2023/07/30 08:08:16;;;;;;;3.20;1.50;;;21.30;99.90;;;;;;5009274;28;20545;-84
2023/07/30 08:10:43;;;;;;;1.40;1.30;;;21.60;99.90;;;;;;5005832;28;20202;-84
2023/07/30 08:13:13;;;;;;;1.60;1.50;;;22.00;99.90;;;;;;5007061;28;20190;-83
2023/07/30 08:15:39;;;;;;;1.63;1.52;;;22.50;99.90;;;;;;5005894;28;20437;-83
2023/07/30 08:18:04;;;;;;;1.60;1.50;;;22.00;99.90;;;;;;5004187;28;20542;-84
2023/07/30 08:20:30;;;;;;;1.40;1.30;;;23.10;99.90;;;;;;5006953;28;20652;-85
2023/07/30 08:22:55;;;;;;;1.47;1.37;;;22.20;99.90;;;;;;5000859;28;20177;-87
2023/07/30 08:25:21;;;;;;;1.30;1.20;;;22.50;99.90;;;;;;5000801;28;20201;-86
2023/07/30 08:27:50;;;;;;;1.50;1.30;;;23.30;99.90;;;;;;4999761;28;20207;-87
2023/07/30 08:30:15;;;;;;;1.47;1.20;;;23.50;99.90;;;;;;5003147;28;20224;-87
2023/07/30 08:32:43;;;;;;;2.20;1.10;;;24.60;99.90;;;;;;5005147;28;20439;-87
2023/07/30 08:35:09;;;;;;;1.63;1.53;;;25.50;99.90;;;;;;5007286;28;20207;-87
2023/07/30 08:37:34;;;;;;;1.10;1.00;;;26.80;99.90;;;;;;5002768;28;20489;-87
2023/07/30 08:40:00;;;;;;;1.50;1.30;;;26.40;99.90;;;;;;5018789;28;20490;-87
2023/07/30 08:42:25;;;;;;;1.27;1.17;;;26.80;99.90;;;;;;5002811;28;20201;-87
2023/07/30 08:44:51;;;;;;;1.60;1.20;;;26.70;99.90;;;;;;5001100;28;20277;-87
2023/07/30 08:47:16;;;;;;;1.77;1.40;;;27.00;99.90;;;;;;5005421;28;20214;-87
2023/07/30 08:49:42;;;;;;;1.53;1.43;;;26.80;99.90;;;;;;5003466;28;20201;-87
2023/07/30 08:52:11;;;;;;;1.97;1.63;;;26.50;99.90;;;;;;4998735;28;20243;-87
2023/07/30 08:54:38;;;;;;;2.57;1.13;;;26.20;99.80;;;;;;4999141;28;20179;-87
2023/07/30 08:57:04;;;;;;;4.00;1.90;;;26.10;99.90;;;;;;5012271;28;20457;-87
2023/07/30 08:59:50;;;;;;;2.00;1.90;;;26.60;99.10;;;;;;5014768;28;20449;-87
2023/07/30 09:02:24;;;;;;;1.63;1.53;;;26.90;97.60;;;;;;5015386;28;20449;-87
2023/07/30 09:04:55;;;;;;;2.43;2.17;;;27.40;98.00;;;;;;5002671;28;20960;-87
2023/07/30 09:07:22;;;;;;;1.60;1.50;;;27.40;97.30;;;;;;5001859;28;20458;-87
2023/07/30 09:09:48;;;;;;;1.67;1.57;;;27.30;97.20;;;;;;5007266;28;20518;-87
2023/07/30 09:12:14;;;;;;;1.63;1.53;;;27.30;96.50;;;;;;4989422;28;20849;-87
2023/07/30 09:14:40;;;;;;;2.10;2.00;;;27.20;97.10;;;;;;5005671;28;20182;-87
2023/07/30 09:17:06;;;;;;;1.73;1.63;;;27.80;95.60;;;;;;5008711;28;20524;-87
2023/07/30 09:19:35;;;;;;;2.03;1.70;;;29.20;94.70;;;;;;5024882;28;20623;-87
2023/07/30 09:22:05;;;;;;;2.10;1.90;;;29.20;93.00;;;;;;5022346;28;20191;-87
2023/07/30 09:24:31;;;;;;;1.73;1.50;;;28.00;93.00;;;;;;5007353;28;20590;-88
2023/07/30 09:27:02;;;;;;;2.10;1.63;;;28.30;95.30;;;;;;5002959;28;21079;-87
2023/07/30 09:29:27;;;;;;;2.50;2.00;;;27.90;95.00;;;;;;5000219;28;20206;-87
2023/07/30 09:31:54;;;;;;;1.60;1.50;;;27.90;94.90;;;;;;4999434;28;20790;-87
2023/07/30 09:34:23;;;;;;;3.43;2.13;;;26.90;94.30;;;;;;5004677;28;20234;-88
2023/07/30 09:36:53;;;;;;;1.73;1.63;;;26.40;96.60;;;;;;4999704;28;20851;-88
2023/07/30 09:39:24;;;;;;;2.40;2.20;;;25.80;98.10;;;;;;5012148;28;20517;-87
2023/07/30 09:41:59;;;;;;;1.97;1.87;;;25.10;99.20;;;;;;4996542;28;20453;-87
2023/07/30 09:44:25;;;;;;;3.23;2.13;;;24.90;99.60;;;;;;5000715;28;20792;-87
2023/07/30 09:46:50;;;;;;;1.93;1.73;;;25.20;99.90;;;;;;4996873;28;20467;-87
2023/07/30 09:49:17;;;;;;;1.93;1.70;;;25.20;99.90;;;;;;5002790;28;20199;-87
2023/07/30 09:51:43;;;;;;;2.97;1.70;;;24.50;99.90;;;;;;5003016;28;20677;-87
2023/07/30 09:54:14;;;;;;;2.50;1.90;;;23.80;99.90;;;;;;4999035;28;20438;-87
2023/07/30 09:56:41;;;;;;;3.60;1.80;;;25.30;99.90;;;;;;4999962;28;20491;-87
2023/07/30 09:59:08;;;;;;;1.70;1.60;;;24.10;99.90;;;;;;5003143;28;20445;-87
2023/07/30 10:01:46;;;;;;;2.87;1.90;;;24.30;99.90;;;;;;4998021;28;20441;-88
2023/07/30 10:04:13;;;;;;;2.57;1.83;;;24.40;99.90;;;;;;5020277;28;20449;-87
2023/07/30 10:06:46;;;;;;;2.30;2.10;;;24.60;99.90;;;;;;5006056;28;20648;-87
2023/07/30 10:09:14;;;;;;;1.93;1.77;;;24.70;99.90;;;;;;5016299;28;20527;-87
2023/07/30 10:11:41;;;;;;;2.30;2.13;;;24.80;99.90;;;;;;5000206;28;20468;-87
2023/07/30 10:14:07;;;;;;;2.50;2.30;;;24.50;99.90;;;;;;4994113;28;20449;-87
2023/07/30 10:16:33;;;;;;;2.80;2.60;;;25.00;99.90;;;;;;5004612;28;20454;-88
2023/07/30 10:18:59;;;;;;;2.37;2.20;;;25.30;99.70;;;;;;5001094;28;20480;-87
2023/07/30 10:21:26;;;;;;;2.00;1.90;;;25.10;99.90;;;;;;4998585;28;20656;-87
2023/07/30 10:24:03;;;;;;;2.50;2.20;;;24.40;98.40;;;;;;4999137;28;20305;-87
2023/07/30 10:26:31;;;;;;;2.23;2.03;;;24.10;98.90;;;;;;4994828;28;20496;-87
2023/07/30 10:29:17;;;;;;;3.90;2.27;;;24.20;98.70;;;;;;5021228;28;20806;-87
2023/07/30 10:31:47;;;;;;;2.10;2.00;;;23.70;97.90;;;;;;5003293;28;20511;-87
2023/07/30 10:34:13;;;;;;;3.07;2.00;;;24.00;99.20;;;;;;4996811;28;20450;-88
2023/07/30 10:36:44;;;;;;;2.10;2.00;;;24.40;97.90;;;;;;4999592;28;20529;-88
2023/07/30 10:39:25;;;;;;;2.77;2.20;;;24.60;98.40;;;;;;5014452;28;20194;-88
2023/07/30 10:41:55;;;;;;;2.40;2.13;;;24.30;98.60;;;;;;4999544;28;20433;-88
2023/07/30 10:44:30;;;;;;;2.63;2.30;;;24.30;97.80;;;;;;5012943;28;20438;-88
2023/07/30 10:46:57;;;;;;;2.27;2.17;;;24.40;97.30;;;;;;4997643;28;20465;-87
2023/07/30 10:49:23;;;;;;;2.77;2.57;;;24.70;96.40;;;;;;4999049;28;20978;-88
2023/07/30 10:51:51;;;;;;;2.60;2.13;;;24.60;96.50;;;;;;5000636;28;20470;-88
2023/07/30 10:54:16;;;;;;;2.03;1.93;;;24.60;97.30;;;;;;4995090;28;20540;-88
2023/07/30 10:56:42;;;;;;;3.93;2.60;;;24.30;97.10;;;;;;5002581;28;20445;-88
2023/07/30 10:59:09;;;;;;;2.77;2.07;;;23.90;96.90;;;;;;4996395;28;20199;-88
2023/07/30 11:01:39;;;;;;;3.63;2.10;;;24.20;97.10;;;;;;5016356;28;20441;-88
2023/07/30 11:04:14;;;;;;;2.20;2.00;;;24.50;96.40;;;;;;5019729;28;20517;-87
2023/07/30 11:06:44;;;;;;;3.17;2.40;;;24.00;94.60;;;;;;5001216;28;20477;-88
2023/07/30 11:09:25;;;;;;;2.37;2.17;;;24.50;95.40;;;;;;5016826;28;20536;-88
2023/07/30 11:11:52;;;;;;;2.27;2.03;;;24.20;95.00;;;;;;4998040;28;21108;-88
2023/07/30 11:14:20;;;;;;;2.40;2.17;;;24.70;95.60;;;;;;4998668;28;20545;-88
2023/07/30 11:16:54;;;;;;;2.20;2.10;;;24.30;95.70;;;;;;4995535;28;20461;-88
2023/07/30 11:19:20;;;;;;;2.90;2.60;;;24.10;95.30;;;;;;4994972;28;20442;-88
2023/07/30 11:21:50;;;;;;;2.43;2.17;;;24.00;95.40;;;;;;5007314;28;20461;-88
2023/07/30 11:24:16;;;;;;;2.97;2.70;;;24.20;95.40;;;;;;5002654;28;20536;-88
2023/07/30 11:26:43;;;;;;;2.20;2.00;;;23.90;95.30;;;;;;5013006;28;21060;-88
2023/07/30 11:29:19;;;;;;;2.53;2.23;;;23.70;95.50;;;;;;4987722;28;20191;-87
2023/07/30 11:31:45;;;;;;;3.43;2.23;;;24.20;95.90;;;;;;4994421;28;20566;-88
2023/07/30 11:34:12;;;;;;;2.20;2.00;;;26.10;93.70;;;;;;5020129;28;20448;-88
2023/07/30 11:36:38;;;;;;;2.30;2.10;;;27.10;91.20;;;;;;5000677;28;20488;-88
2023/07/30 11:39:04;;;;;;;3.70;2.10;;;27.70;87.00;;;;;;4999906;28;20447;-87
2023/07/30 11:41:30;;;;;;;2.50;2.17;;;28.20;86.20;;;;;;4993174;28;20516;-88
2023/07/30 11:43:55;;;;;;;2.40;2.20;;;28.50;84.30;;;;;;5000093;28;20450;-88
2023/07/30 11:46:22;;;;;;;2.03;1.83;;;29.30;82.20;;;;;;5001985;28;20210;-88
2023/07/30 11:48:50;;;;;;;2.47;2.27;;;28.40;82.00;;;;;;5012788;28;20216;-88
2023/07/30 11:51:24;;;;;;;2.53;2.33;;;28.40;82.90;;;;;;5002851;28;20473;-88
2023/07/30 11:53:53;;;;;;;2.97;2.20;;;28.70;80.70;;;;;;5012918;28;20975;-88
2023/07/30 11:56:26;;;;;;;2.17;1.97;;;28.70;81.40;;;;;;4999482;28;20463;-88
2023/07/30 11:58:58;;;;;;;3.10;2.20;;;28.20;82.60;;;;;;4994153;28;20446;-88
2023/07/30 12:01:25;;;;;;;2.20;1.97;;;28.10;84.30;;;;;;5006212;28;20607;-87
2023/07/30 12:03:54;;;;;;;2.87;2.67;;;26.60;87.00;;;;;;5019327;28;20440;-87
2023/07/30 12:06:19;;;;;;;3.70;2.67;;;26.50;88.70;;;;;;5020769;28;20488;-87
2023/07/30 12:08:48;;;;;;;2.27;2.17;;;25.90;90.30;;;;;;5011138;28;20466;-88
2023/07/30 12:11:13;;;;;;;2.90;2.70;;;25.60;90.80;;;;;;4999275;28;20414;-87
2023/07/30 12:13:45;;;;;;;2.17;1.97;;;25.60;91.40;;;;;;4999735;28;20862;-88
2023/07/30 12:16:12;;;;;;;2.83;2.37;;;25.30;90.70;;;;;;4997894;28;20218;-88
2023/07/30 12:18:39;;;;;;;3.27;2.23;;;24.70;91.60;;;;;;4999954;28;20457;-88
2023/07/30 12:21:07;;;;;;;2.50;2.30;;;24.50;92.30;;;;;;4997388;28;20450;-88
2023/07/30 12:23:33;;;;;;;2.50;2.30;;;24.70;92.50;;;;;;4997045;28;20447;-88
2023/07/30 12:25:59;;;;;;;2.57;2.37;;;26.10;93.20;;;;;;4998042;28;20461;-88
2023/07/30 12:28:24;;;;;;;2.20;2.00;;;25.10;93.60;;;;;;5000890;28;20537;-88
2023/07/30 12:30:50;;;;;;;2.67;2.47;;;24.40;93.30;;;;;;4997553;28;20206;-88
2023/07/30 12:33:16;;;;;;;2.30;2.10;;;24.30;93.00;;;;;;4996515;28;20335;-88
2023/07/30 12:35:42;;;;;;;2.57;2.30;;;24.20;92.90;;;;;;5001152;28;20174;-88
2023/07/30 12:38:07;;;;;;;2.90;2.37;;;24.90;93.60;;;;;;5001896;28;20434;-88
2023/07/30 12:40:33;;;;;;;2.20;2.10;;;24.30;92.70;;;;;;5014780;28;20194;-88
2023/07/30 12:43:01;;;;;;;2.23;2.03;;;24.40;92.20;;;;;;4994053;28;20270;-88
2023/07/30 12:45:27;;;;;;;2.00;1.90;;;25.40;92.70;;;;;;4981876;28;20434;-88